Lebam, Washington
Current Conditions -  °F | °C
As of 2:35 PM on Monday 26 Jan 2015 (Local Time) from KCLS Reporting Station
Clear Clear  
Wind Chill: 66°   Ceiling: Unl
Heat Index: 66°   Visibility: 10mi
Dew Point: 48°   Wind: 8mph
Humidity: 52%   Direction: 170°S
Pressure: 29.92"   Gusts: NA
Location:  46.56°N, 123.55°W
Report Text: KCLS 262235Z AUTO 17007KT 10SM CLR 19/09 A2992 RMK AO2
Loading
Personal Weather Stations






























Interactive Weather Map New forecast layout! Learn more

10-Day Weather Forecast

Advertisements
Track Severe Weather on mobile